createdAt,value
2018-09-02T00:01:08.668Z,4
2018-09-02T00:11:24.251Z,4
2018-09-02T00:21:37.828Z,4
2018-09-02T00:31:34.670Z,5
2018-09-02T00:41:35.288Z,5
2018-09-02T00:51:35.925Z,5
2018-09-02T01:01:32.936Z,6
2018-09-02T01:11:33.425Z,6
2018-09-02T01:21:31.642Z,6
2018-09-02T01:31:36.407Z,6
2018-09-02T01:41:36.042Z,6
2018-09-02T01:51:35.228Z,7
2018-09-02T02:01:37.018Z,7
2018-09-02T02:11:37.033Z,7
2018-09-02T02:21:36.329Z,7
2018-09-02T02:31:37.641Z,6
2018-09-02T02:41:32.316Z,8
2018-09-02T02:51:34.575Z,7
2018-09-02T03:01:35.496Z,9
2018-09-02T03:11:37.816Z,8
2018-09-02T03:21:25.107Z,8
2018-09-02T03:31:38.376Z,9
2018-09-02T03:41:35.677Z,10
2018-09-02T03:51:37.851Z,9
2018-09-02T04:00:22.935Z,10
2018-09-02T04:09:54.961Z,12
2018-09-02T04:19:54.933Z,10
2018-09-02T04:29:54.949Z,11
2018-09-02T04:39:54.997Z,11
2018-09-02T04:49:55.068Z,13
2018-09-02T05:10:40.432Z,12
2018-09-02T05:11:20.907Z,14
2018-09-02T05:21:21.036Z,12
2018-09-02T05:31:20.926Z,11
2018-09-02T05:41:20.998Z,12
2018-09-02T05:51:20.989Z,11
2018-09-02T06:01:30.974Z,11
2018-09-02T06:11:20.950Z,12
2018-09-02T06:21:21.119Z,10
2018-09-02T06:31:20.975Z,9
2018-09-02T06:41:21.182Z,10
2018-09-02T06:51:23.888Z,10
2018-09-02T07:01:21.246Z,8
2018-09-02T07:11:21.024Z,8
2018-09-02T07:21:23.207Z,8
2018-09-02T07:31:21.125Z,7
2018-09-02T07:41:21.646Z,5
2018-09-02T07:51:21.070Z,5
2018-09-02T08:01:21.028Z,5
2018-09-02T08:11:21.116Z,6
2018-09-02T08:21:21.015Z,3
2018-09-02T08:31:21.713Z,3
2018-09-02T08:41:21.087Z,3
2018-09-02T08:57:49.835Z,3
2018-09-02T09:01:21.084Z,2
2018-09-02T09:11:27.074Z,3
2018-09-02T09:21:21.949Z,2
2018-09-02T09:31:21.188Z,2
2018-09-02T09:41:21.135Z,2
2018-09-02T09:51:21.206Z,2
2018-09-02T10:01:21.263Z,3
2018-09-02T10:11:21.341Z,2
2018-09-02T10:21:21.160Z,3
2018-09-02T10:31:21.125Z,2
2018-09-02T10:41:21.182Z,2
2018-09-02T10:51:21.169Z,3
2018-09-02T11:01:21.142Z,2
2018-09-02T11:11:21.206Z,2
2018-09-02T11:21:21.381Z,2
2018-09-02T11:31:21.277Z,3
2018-09-02T11:41:21.211Z,2
2018-09-02T11:51:21.165Z,4
2018-09-02T12:01:21.345Z,5
2018-09-02T12:11:21.923Z,4
2018-09-02T12:21:21.165Z,3
2018-09-02T12:31:21.165Z,3
2018-09-02T12:41:21.286Z,2
2018-09-02T12:51:21.226Z,2
2018-09-02T13:01:21.267Z,3
2018-09-02T13:11:21.146Z,3
2018-09-02T13:21:21.173Z,2
2018-09-02T13:31:21.161Z,2
2018-09-02T13:41:21.462Z,2
2018-09-02T13:51:21.432Z,2
2018-09-02T14:01:21.185Z,3
2018-09-02T14:11:21.275Z,3
2018-09-02T14:21:21.358Z,2
2018-09-02T14:31:21.331Z,2
2018-09-02T14:41:21.389Z,3
2018-09-02T14:51:21.351Z,2
2018-09-02T15:01:21.373Z,3
2018-09-02T15:11:21.286Z,2
2018-09-02T15:21:21.455Z,2
2018-09-02T15:31:21.276Z,3
2018-09-02T15:41:21.629Z,2
2018-09-02T15:51:21.341Z,3
2018-09-02T16:01:21.275Z,2
2018-09-02T16:11:21.246Z,2
2018-09-02T16:21:26.477Z,2
2018-09-02T16:31:21.287Z,2
2018-09-02T16:41:21.383Z,2
2018-09-02T16:51:21.222Z,3
2018-09-02T17:01:21.196Z,3
2018-09-02T17:11:21.317Z,2
2018-09-02T17:21:21.271Z,2
2018-09-02T17:31:21.274Z,2
2018-09-02T17:41:21.234Z,2
2018-09-02T17:51:21.268Z,2
2018-09-02T18:01:21.445Z,3
2018-09-02T18:11:22.296Z,3
2018-09-02T18:21:22.823Z,2
2018-09-02T18:31:24.357Z,3
2018-09-02T18:41:24.438Z,3
2018-09-02T18:51:24.599Z,3
2018-09-02T19:01:23.538Z,3
2018-09-02T19:11:23.615Z,3
2018-09-02T19:21:22.943Z,2
2018-09-02T19:31:23.949Z,2
2018-09-02T19:41:23.213Z,3
2018-09-02T19:51:22.412Z,2
2018-09-02T20:01:21.720Z,3
2018-09-02T20:11:21.378Z,3
2018-09-02T20:21:21.418Z,3
2018-09-02T20:31:21.329Z,3
2018-09-02T20:41:21.344Z,3
2018-09-02T20:51:21.375Z,2
2018-09-02T21:01:21.424Z,3
2018-09-02T21:11:21.347Z,3
2018-09-02T21:21:21.498Z,3
2018-09-02T21:31:21.500Z,4
2018-09-02T21:41:21.602Z,4
2018-09-02T21:51:21.411Z,4
2018-09-02T22:01:21.415Z,3
2018-09-02T22:11:21.441Z,3
2018-09-02T22:21:21.462Z,3
2018-09-02T22:31:21.601Z,3
2018-09-02T22:41:21.565Z,3
2018-09-02T22:51:21.500Z,4
2018-09-02T23:01:21.505Z,3
2018-09-02T23:11:21.631Z,4
2018-09-02T23:21:21.648Z,3
2018-09-02T23:31:21.549Z,3
2018-09-02T23:41:21.520Z,5
2018-09-02T23:51:21.526Z,4
